createdAt,value
2018-05-24T00:00:16.124Z,0.00
2018-05-24T00:01:16.213Z,0.00
2018-05-24T00:02:16.159Z,0.00
2018-05-24T00:03:16.184Z,0.00
2018-05-24T00:04:16.202Z,0.00
2018-05-24T00:05:16.221Z,0.00
2018-05-24T00:06:16.239Z,0.00
2018-05-24T00:07:16.252Z,0.00
2018-05-24T00:08:16.270Z,0.00
2018-05-24T00:09:16.287Z,0.00
2018-05-24T00:10:16.309Z,0.00
2018-05-24T00:11:16.326Z,0.00
2018-05-24T00:12:16.341Z,0.00
2018-05-24T00:13:16.412Z,0.00
2018-05-24T00:15:16.396Z,0.00
2018-05-24T00:16:16.412Z,0.00
2018-05-24T00:17:16.436Z,0.00
2018-05-24T00:18:16.452Z,0.00
2018-05-24T00:19:16.476Z,0.00
2018-05-24T00:20:16.493Z,0.00
2018-05-24T00:21:16.511Z,0.00
2018-05-24T00:22:16.524Z,0.00
2018-05-24T00:23:16.545Z,0.00
2018-05-24T00:24:16.566Z,0.00
2018-05-24T00:25:16.580Z,0.00
2018-05-24T00:26:16.602Z,0.00
2018-05-24T00:27:16.618Z,0.00
2018-05-24T00:28:16.632Z,0.00
2018-05-24T00:29:16.655Z,0.00
2018-05-24T00:30:16.672Z,0.00
2018-05-24T00:31:16.743Z,0.00
2018-05-24T00:32:16.720Z,0.00
2018-05-24T00:33:16.722Z,0.00
2018-05-24T00:34:16.746Z,0.00
2018-05-24T00:35:16.760Z,0.00
2018-05-24T00:36:16.775Z,0.00
2018-05-24T00:37:16.844Z,0.00
2018-05-24T00:38:16.816Z,0.00
2018-05-24T00:39:16.835Z,0.00
2018-05-24T00:40:16.856Z,0.00
2018-05-24T00:41:16.866Z,0.00
2018-05-24T00:42:16.892Z,0.00
2018-05-24T00:43:16.905Z,0.00
2018-05-24T00:44:16.923Z,0.00
2018-05-24T00:45:17.012Z,0.00
2018-05-24T00:46:16.973Z,0.00
2018-05-24T00:47:16.977Z,0.00
2018-05-24T00:48:16.999Z,0.00
2018-05-24T00:49:17.021Z,0.00
2018-05-24T00:50:17.032Z,0.00
2018-05-24T00:51:17.136Z,0.00
2018-05-24T00:52:17.067Z,0.00
2018-05-24T00:53:17.088Z,0.00
2018-05-24T00:54:17.107Z,0.00
2018-05-24T00:55:17.131Z,0.00
2018-05-24T00:56:17.140Z,0.00
2018-05-24T00:57:17.198Z,0.00
2018-05-24T00:58:17.184Z,0.00
2018-05-24T00:59:17.208Z,0.00
2018-05-24T01:00:17.220Z,0.00
2018-05-24T01:01:17.235Z,0.00
2018-05-24T01:02:17.262Z,0.00
2018-05-24T01:03:17.303Z,0.00
2018-05-24T01:04:17.292Z,0.00
2018-05-24T01:05:17.310Z,0.00
2018-05-24T01:06:17.328Z,0.00
2018-05-24T01:07:17.348Z,0.00
2018-05-24T01:08:17.365Z,0.00
2018-05-24T01:09:17.388Z,0.00
2018-05-24T01:10:17.416Z,0.00
2018-05-24T01:11:17.423Z,0.00
2018-05-24T01:12:17.436Z,0.00
2018-05-24T01:13:17.464Z,0.00
2018-05-24T01:14:17.471Z,0.00
2018-05-24T01:15:17.572Z,0.00
2018-05-24T01:16:17.515Z,0.00
2018-05-24T01:17:17.531Z,0.00
2018-05-24T01:18:17.554Z,0.00
2018-05-24T01:19:17.571Z,0.00
2018-05-24T01:20:17.585Z,0.00
2018-05-24T01:21:17.661Z,0.00
2018-05-24T01:22:17.620Z,0.00
2018-05-24T01:23:17.640Z,0.00
2018-05-24T01:24:17.659Z,0.00
2018-05-24T01:25:17.755Z,0.00
2018-05-24T01:26:17.692Z,0.00
2018-05-24T01:27:17.719Z,0.00
2018-05-24T01:28:17.736Z,0.00
2018-05-24T01:29:17.751Z,0.00
2018-05-24T01:30:17.771Z,0.00
2018-05-24T01:31:17.833Z,0.00
2018-05-24T01:32:17.801Z,0.00
2018-05-24T01:33:17.818Z,0.00
2018-05-24T01:34:17.887Z,0.00
2018-05-24T01:35:17.857Z,0.00
2018-05-24T01:36:17.879Z,0.00
2018-05-24T01:37:17.947Z,0.00
2018-05-24T01:38:17.913Z,0.00
2018-05-24T01:39:17.928Z,0.00
2018-05-24T01:40:17.958Z,0.00
2018-05-24T01:41:17.965Z,0.00
2018-05-24T01:42:17.987Z,0.00
2018-05-24T01:43:18.000Z,0.00
2018-05-24T01:44:18.018Z,0.00
2018-05-24T01:45:18.042Z,0.00
2018-05-24T01:46:18.131Z,0.00
2018-05-24T01:47:18.077Z,0.00
2018-05-24T01:48:18.092Z,0.00
2018-05-24T01:49:18.105Z,0.00
2018-05-24T01:50:18.122Z,0.00
2018-05-24T01:51:18.141Z,0.00
2018-05-24T01:52:18.201Z,0.00
2018-05-24T01:53:18.177Z,0.00
2018-05-24T01:54:18.201Z,0.00
2018-05-24T01:55:18.217Z,0.00
2018-05-24T01:56:18.236Z,0.00
2018-05-24T01:57:18.249Z,0.00
2018-05-24T01:58:18.341Z,0.00
2018-05-24T01:59:18.285Z,0.00
2018-05-24T02:00:18.356Z,0.00
2018-05-24T02:01:18.323Z,0.00
2018-05-24T02:02:18.337Z,0.00
2018-05-24T02:03:18.354Z,0.00
2018-05-24T02:04:18.457Z,0.00
2018-05-24T02:05:18.396Z,0.00
2018-05-24T02:06:18.415Z,0.00
2018-05-24T02:07:18.430Z,0.00
2018-05-24T02:08:18.448Z,0.00
2018-05-24T02:09:18.468Z,0.00
2018-05-24T02:10:18.484Z,0.00
2018-05-24T02:11:18.497Z,0.00
2018-05-24T02:12:18.511Z,0.00
2018-05-24T02:13:18.530Z,0.00
2018-05-24T02:14:18.547Z,0.00
2018-05-24T02:15:18.571Z,0.00
2018-05-24T02:16:18.586Z,0.00
2018-05-24T02:17:18.602Z,0.00
2018-05-24T02:18:18.625Z,0.00
2018-05-24T02:19:18.693Z,0.00
2018-05-24T02:20:18.656Z,0.00
2018-05-24T02:21:18.668Z,0.00
2018-05-24T02:22:18.700Z,0.00
2018-05-24T02:23:18.708Z,0.00
2018-05-24T02:24:18.727Z,0.00
2018-05-24T02:25:18.751Z,0.00
2018-05-24T02:26:18.764Z,0.00
2018-05-24T02:27:18.783Z,0.00
2018-05-24T02:28:18.849Z,0.00
2018-05-24T02:29:18.815Z,0.00
2018-05-24T02:30:18.841Z,0.00
2018-05-24T02:31:18.853Z,0.00
2018-05-24T02:32:18.871Z,0.00
2018-05-24T02:33:18.888Z,0.00
2018-05-24T02:34:18.903Z,0.00
2018-05-24T02:35:18.920Z,0.00
2018-05-24T02:36:18.943Z,0.00
2018-05-24T02:37:19.008Z,0.00
2018-05-24T02:38:18.977Z,0.00
2018-05-24T02:39:18.994Z,0.00
2018-05-24T02:40:19.011Z,0.00
2018-05-24T02:41:19.027Z,0.00
2018-05-24T02:42:19.048Z,0.00
2018-05-24T02:43:19.059Z,0.00
2018-05-24T02:44:19.075Z,0.00
2018-05-24T02:45:19.096Z,0.00
2018-05-24T02:46:19.112Z,0.00
2018-05-24T02:47:19.203Z,0.00
2018-05-24T02:48:19.165Z,0.00
2018-05-24T02:49:19.173Z,0.00
2018-05-24T02:50:19.184Z,0.00
2018-05-24T02:51:19.203Z,0.00
2018-05-24T02:52:19.219Z,0.00
2018-05-24T02:53:19.254Z,0.00
2018-05-24T02:54:19.260Z,0.00
2018-05-24T02:55:19.270Z,0.00
2018-05-24T02:56:19.410Z,0.00
2018-05-24T02:57:19.308Z,0.00
2018-05-24T02:58:19.330Z,0.00
2018-05-24T02:59:19.349Z,0.00
2018-05-24T03:00:19.363Z,0.00
2018-05-24T03:01:19.383Z,0.00
2018-05-24T03:02:19.396Z,0.00
2018-05-24T03:03:19.418Z,0.00
2018-05-24T03:04:19.433Z,0.00
2018-05-24T03:05:19.451Z,0.00
2018-05-24T03:06:19.465Z,0.00
2018-05-24T03:07:19.484Z,0.00
2018-05-24T03:08:19.501Z,0.00
2018-05-24T03:09:19.518Z,0.00
2018-05-24T03:10:19.565Z,0.00
2018-05-24T03:11:19.559Z,0.00
2018-05-24T03:12:19.578Z,0.00
2018-05-24T03:13:19.610Z,0.00
2018-05-24T03:14:19.725Z,0.00
2018-05-24T03:15:19.631Z,0.00
2018-05-24T03:16:19.645Z,0.00
2018-05-24T03:17:19.661Z,0.00
2018-05-24T03:18:19.749Z,0.00
2018-05-24T03:19:19.699Z,0.00
2018-05-24T03:20:19.710Z,0.00
2018-05-24T03:21:19.733Z,0.00
2018-05-24T03:22:19.750Z,0.00
2018-05-24T03:23:19.770Z,0.00
2018-05-24T03:24:19.831Z,0.00
2018-05-24T03:25:19.850Z,0.00
2018-05-24T03:26:19.818Z,0.00
2018-05-24T03:27:19.842Z,0.00
2018-05-24T03:28:19.857Z,0.00
2018-05-24T03:29:19.875Z,0.00
2018-05-24T03:30:19.891Z,0.00
2018-05-24T03:31:19.909Z,0.00
2018-05-24T03:32:19.924Z,0.00
2018-05-24T03:33:19.940Z,0.00
2018-05-24T03:34:19.963Z,0.00
2018-05-24T03:35:20.050Z,0.00
2018-05-24T03:36:20.063Z,0.00
2018-05-24T03:37:20.013Z,0.00
2018-05-24T03:38:20.035Z,0.00
2018-05-24T03:39:20.051Z,0.00
2018-05-24T03:40:20.067Z,0.00
2018-05-24T03:41:20.169Z,0.00
2018-05-24T03:42:20.127Z,0.00
2018-05-24T03:43:20.123Z,0.00
2018-05-24T03:44:20.134Z,0.00
2018-05-24T03:45:20.152Z,0.00
2018-05-24T03:46:20.167Z,0.00
2018-05-24T03:47:20.184Z,0.00
2018-05-24T03:48:20.256Z,0.00
2018-05-24T03:49:20.227Z,0.00
2018-05-24T03:50:20.239Z,0.00
2018-05-24T03:51:20.261Z,0.00
2018-05-24T03:52:20.277Z,0.00
2018-05-24T03:53:20.293Z,0.00
2018-05-24T03:54:20.308Z,0.00
2018-05-24T03:55:20.375Z,0.00
2018-05-24T03:56:20.355Z,0.00
2018-05-24T03:57:20.355Z,0.00
2018-05-24T03:58:20.378Z,0.00
2018-05-24T03:59:20.391Z,0.00
2018-05-24T04:00:20.413Z,0.00
2018-05-24T04:01:20.500Z,0.00
2018-05-24T04:02:20.455Z,0.00
2018-05-24T04:03:20.471Z,0.00
2018-05-24T04:04:20.487Z,0.00
2018-05-24T04:05:20.502Z,0.00
2018-05-24T04:06:20.519Z,0.00
2018-05-24T04:07:20.595Z,0.00
2018-05-24T04:08:20.554Z,0.00
2018-05-24T04:09:20.565Z,0.00
2018-05-24T04:10:20.588Z,0.00
2018-05-24T04:11:20.608Z,0.00
2018-05-24T04:12:20.616Z,0.00
2018-05-24T04:13:20.735Z,0.00
2018-05-24T04:14:20.653Z,0.00
2018-05-24T04:15:20.673Z,0.00
2018-05-24T04:16:20.689Z,0.00
2018-05-24T04:17:20.708Z,0.00
2018-05-24T04:18:20.725Z,0.00
2018-05-24T04:19:20.785Z,0.00
2018-05-24T04:20:20.760Z,0.00
2018-05-24T04:21:20.776Z,0.00
2018-05-24T04:22:20.796Z,0.00
2018-05-24T04:23:20.923Z,0.00
2018-05-24T04:24:20.829Z,0.00
2018-05-24T04:25:20.956Z,0.00
2018-05-24T04:26:20.859Z,0.00
2018-05-24T04:27:20.883Z,0.00
2018-05-24T04:28:20.900Z,0.00
2018-05-24T04:29:20.919Z,0.00
2018-05-24T04:30:20.931Z,0.00
2018-05-24T04:31:20.949Z,0.00
2018-05-24T04:32:20.970Z,0.00
2018-05-24T04:33:20.987Z,0.00
2018-05-24T04:34:21.004Z,0.00
2018-05-24T04:35:21.023Z,0.00
2018-05-24T04:36:21.041Z,0.00
2018-05-24T04:37:21.057Z,0.00
2018-05-24T04:38:21.071Z,0.00
2018-05-24T04:39:21.088Z,0.00
2018-05-24T04:40:21.109Z,0.00
2018-05-24T04:41:21.124Z,0.00
2018-05-24T04:42:21.139Z,0.00
2018-05-24T04:43:21.235Z,0.00
2018-05-24T04:44:21.178Z,0.00
2018-05-24T04:45:21.219Z,0.00
2018-05-24T04:46:21.215Z,0.00
2018-05-24T04:47:21.233Z,0.00
2018-05-24T04:48:21.245Z,0.00
2018-05-24T04:49:21.329Z,0.00
2018-05-24T04:50:21.277Z,0.00
2018-05-24T04:51:21.303Z,0.00
2018-05-24T04:52:21.320Z,0.00
2018-05-24T04:53:21.336Z,0.00
2018-05-24T04:54:21.351Z,0.00
2018-05-24T04:55:21.562Z,0.00
2018-05-24T04:56:21.390Z,0.00
2018-05-24T04:57:21.422Z,0.00
2018-05-24T04:58:21.417Z,0.00
2018-05-24T04:59:21.443Z,0.00
2018-05-24T05:00:21.454Z,0.00
2018-05-24T05:01:21.597Z,0.00
2018-05-24T05:02:21.493Z,0.00
2018-05-24T05:03:21.513Z,0.00
2018-05-24T05:04:21.527Z,0.00
2018-05-24T05:05:21.546Z,0.00
2018-05-24T05:06:21.560Z,0.00
2018-05-24T05:07:21.685Z,0.00
2018-05-24T05:08:21.598Z,0.00
2018-05-24T05:09:21.617Z,0.00
2018-05-24T05:10:21.628Z,0.00
2018-05-24T05:11:21.651Z,0.00
2018-05-24T05:12:21.664Z,0.00
2018-05-24T05:13:21.805Z,0.00
2018-05-24T05:14:21.706Z,0.00
2018-05-24T05:15:21.723Z,0.00
2018-05-24T05:16:21.739Z,0.00
2018-05-24T05:17:21.757Z,0.00
2018-05-24T05:18:21.770Z,0.00
2018-05-24T05:19:21.831Z,0.00
2018-05-24T05:20:21.808Z,0.00
2018-05-24T05:21:21.830Z,0.00
2018-05-24T05:22:21.848Z,0.00
2018-05-24T05:23:21.941Z,0.00
2018-05-24T05:24:21.878Z,0.00
2018-05-24T05:25:21.909Z,0.00
2018-05-24T05:26:21.912Z,0.00
2018-05-24T05:27:21.930Z,0.00
2018-05-24T05:28:21.944Z,0.00
2018-05-24T05:29:21.966Z,0.00
2018-05-24T05:30:21.983Z,0.00
2018-05-24T05:31:22.084Z,0.00
2018-05-24T05:32:22.022Z,0.00
2018-05-24T05:33:22.040Z,0.00
2018-05-24T05:34:22.056Z,5.63
2018-05-24T05:35:22.075Z,5.63
2018-05-24T05:36:22.088Z,5.63
2018-05-24T05:37:22.107Z,5.63
2018-05-24T05:38:22.222Z,5.63
2018-05-24T05:39:22.141Z,5.63
2018-05-24T05:40:22.217Z,5.63
2018-05-24T05:41:22.176Z,5.63
2018-05-24T05:42:22.196Z,5.63
2018-05-24T05:43:22.214Z,5.63
2018-05-24T05:44:22.226Z,5.63
2018-05-24T05:45:22.252Z,5.63
2018-05-24T05:46:22.270Z,11.25
2018-05-24T05:47:22.286Z,11.25
2018-05-24T05:48:22.306Z,11.25
2018-05-24T05:49:22.369Z,11.25
2018-05-24T05:50:22.341Z,11.25
2018-05-24T05:51:22.356Z,16.88
2018-05-24T05:52:22.371Z,16.88
2018-05-24T05:53:22.395Z,16.88
2018-05-24T05:54:22.409Z,16.88
2018-05-24T05:55:22.431Z,16.88
2018-05-24T05:56:22.442Z,16.88
2018-05-24T05:57:22.456Z,16.88
2018-05-24T05:58:22.481Z,16.88
2018-05-24T05:59:22.494Z,16.88
2018-05-24T06:00:22.512Z,16.88
2018-05-24T06:01:22.529Z,16.88
2018-05-24T06:02:22.546Z,16.88
2018-05-24T06:03:22.565Z,16.88
2018-05-24T06:04:22.589Z,16.88
2018-05-24T06:05:22.600Z,16.88
2018-05-24T06:06:22.625Z,16.88
2018-05-24T06:07:22.688Z,16.88
2018-05-24T06:08:22.657Z,22.50
2018-05-24T06:09:22.676Z,22.50
2018-05-24T06:10:22.691Z,22.50
2018-05-24T06:11:22.711Z,22.50
2018-05-24T06:12:22.731Z,22.50
2018-05-24T06:13:22.757Z,22.50
2018-05-24T06:14:22.766Z,22.50
2018-05-24T06:15:22.868Z,22.50
2018-05-24T06:16:22.798Z,22.50
2018-05-24T06:17:22.812Z,22.50
2018-05-24T06:18:22.831Z,22.50
2018-05-24T06:19:22.904Z,22.50
2018-05-24T06:20:22.867Z,16.88
2018-05-24T06:21:22.885Z,16.88
2018-05-24T06:22:22.909Z,16.88
2018-05-24T06:23:22.928Z,16.88
2018-05-24T06:24:22.944Z,11.25
2018-05-24T06:25:22.967Z,11.25
2018-05-24T06:26:22.980Z,11.25
2018-05-24T06:27:23.000Z,11.25
2018-05-24T06:28:23.089Z,11.25
2018-05-24T06:29:23.028Z,11.25
2018-05-24T06:30:23.046Z,11.25
2018-05-24T06:31:23.069Z,11.25
2018-05-24T06:32:23.087Z,11.25
2018-05-24T06:33:23.102Z,16.88
2018-05-24T06:34:23.123Z,16.88
2018-05-24T06:35:23.138Z,16.88
2018-05-24T06:36:23.157Z,16.88
2018-05-24T06:37:23.175Z,16.88
2018-05-24T06:38:23.190Z,11.25
2018-05-24T06:39:23.243Z,11.25
2018-05-24T06:40:23.243Z,11.25
2018-05-24T06:41:23.249Z,11.25
2018-05-24T06:42:23.262Z,5.63
2018-05-24T06:43:23.281Z,5.63
2018-05-24T06:44:23.304Z,5.63
2018-05-24T06:45:23.316Z,5.63
2018-05-24T06:46:23.386Z,5.63
2018-05-24T06:47:23.358Z,11.25
2018-05-24T06:48:23.369Z,11.25
2018-05-24T06:49:23.396Z,11.25
2018-05-24T06:50:23.406Z,11.25
2018-05-24T06:51:23.426Z,11.25
2018-05-24T06:52:23.443Z,11.25
2018-05-24T06:53:23.459Z,5.63
2018-05-24T06:54:23.478Z,5.63
2018-05-24T06:55:23.550Z,5.63
2018-05-24T06:56:23.510Z,5.63
2018-05-24T06:57:23.617Z,5.63
2018-05-24T06:58:23.553Z,5.63
2018-05-24T06:59:23.568Z,5.63
2018-05-24T07:00:23.585Z,5.63
2018-05-24T07:01:23.605Z,5.63
2018-05-24T07:02:23.623Z,5.63
2018-05-24T07:03:23.639Z,5.63
2018-05-24T07:04:23.654Z,5.63
2018-05-24T07:05:23.674Z,5.63
2018-05-24T07:06:23.694Z,5.63
2018-05-24T07:07:23.759Z,5.63
2018-05-24T07:08:23.723Z,5.63
2018-05-24T07:09:23.746Z,5.63
2018-05-24T07:10:23.762Z,5.63
2018-05-24T07:11:23.780Z,5.63
2018-05-24T07:12:23.854Z,5.63
2018-05-24T07:13:23.809Z,5.63
2018-05-24T07:14:23.826Z,5.63
2018-05-24T07:15:23.851Z,5.63
2018-05-24T07:16:23.889Z,5.63
2018-05-24T07:17:23.882Z,11.25
2018-05-24T07:18:23.902Z,11.25
2018-05-24T07:19:23.916Z,11.25
2018-05-24T07:20:23.935Z,11.25
2018-05-24T07:21:23.949Z,11.25
2018-05-24T07:22:23.972Z,11.25
2018-05-24T07:23:23.991Z,11.25
2018-05-24T07:24:24.004Z,16.88
2018-05-24T07:25:24.021Z,11.25
2018-05-24T07:26:24.047Z,16.88
2018-05-24T07:27:24.061Z,16.88
2018-05-24T07:28:24.079Z,11.25
2018-05-24T07:29:24.098Z,11.25
2018-05-24T07:30:24.109Z,11.25
2018-05-24T07:31:24.177Z,11.25
2018-05-24T07:32:24.150Z,11.25
2018-05-24T07:33:24.167Z,11.25
2018-05-24T07:34:24.183Z,11.25
2018-05-24T07:35:24.201Z,11.25
2018-05-24T07:36:24.218Z,5.63
2018-05-24T07:37:24.238Z,5.63
2018-05-24T07:38:24.252Z,5.63
2018-05-24T07:39:24.270Z,5.63
2018-05-24T07:40:24.291Z,5.63
2018-05-24T07:41:24.305Z,5.63
2018-05-24T07:42:24.324Z,5.63
2018-05-24T07:43:24.389Z,5.63
2018-05-24T07:44:24.366Z,5.63
2018-05-24T07:45:24.375Z,5.63
2018-05-24T07:46:24.391Z,5.63
2018-05-24T07:47:24.410Z,5.63
2018-05-24T07:48:24.425Z,5.63
2018-05-24T07:49:24.448Z,5.63
2018-05-24T07:50:24.468Z,5.63
2018-05-24T07:51:24.487Z,5.63
2018-05-24T07:52:24.501Z,5.63
2018-05-24T07:53:24.512Z,5.63
2018-05-24T07:54:24.528Z,5.63
2018-05-24T07:55:24.553Z,5.63
2018-05-24T07:56:24.571Z,5.63
2018-05-24T07:57:24.580Z,5.63
2018-05-24T07:58:24.625Z,5.63
2018-05-24T07:59:24.617Z,5.63
2018-05-24T08:00:24.638Z,5.63
2018-05-24T08:01:24.652Z,5.63
2018-05-24T08:02:24.668Z,5.63
2018-05-24T08:03:24.765Z,5.63
2018-05-24T08:04:24.709Z,5.63
2018-05-24T08:05:24.720Z,11.25
2018-05-24T08:06:24.750Z,11.25
2018-05-24T08:07:24.762Z,11.25
2018-05-24T08:08:24.779Z,11.25
2018-05-24T08:09:24.792Z,11.25
2018-05-24T08:10:24.816Z,11.25
2018-05-24T08:11:24.826Z,11.25
2018-05-24T08:12:24.846Z,11.25
2018-05-24T08:13:24.918Z,16.88
2018-05-24T08:14:24.888Z,16.88
2018-05-24T08:15:24.911Z,16.88
2018-05-24T08:16:24.923Z,22.50
2018-05-24T08:17:24.933Z,22.50
2018-05-24T08:18:24.949Z,28.13
2018-05-24T08:19:24.981Z,28.13
2018-05-24T08:20:24.991Z,33.75
2018-05-24T08:21:25.047Z,33.75
2018-05-24T08:22:25.095Z,33.75
2018-05-24T08:23:25.046Z,39.38
2018-05-24T08:24:25.060Z,39.38
2018-05-24T08:25:25.076Z,39.38
2018-05-24T08:26:25.103Z,39.38
2018-05-24T08:27:25.143Z,33.75
2018-05-24T08:28:25.132Z,39.38
2018-05-24T08:29:25.151Z,39.38
2018-05-24T08:30:25.167Z,45.00
2018-05-24T08:31:25.184Z,56.25
2018-05-24T08:32:25.207Z,61.88
2018-05-24T08:33:25.256Z,67.50
2018-05-24T08:34:25.239Z,67.50
2018-05-24T08:35:25.259Z,67.50
2018-05-24T08:36:25.269Z,67.50
2018-05-24T08:37:25.288Z,67.50
2018-05-24T08:38:25.315Z,61.88
2018-05-24T08:39:25.352Z,61.88
2018-05-24T08:40:25.347Z,61.88
2018-05-24T08:41:25.362Z,61.88
2018-05-24T08:42:25.384Z,61.88
2018-05-24T08:43:25.453Z,61.88
2018-05-24T08:44:25.418Z,61.88
2018-05-24T08:45:25.513Z,61.88
2018-05-24T08:46:25.458Z,61.88
2018-05-24T08:47:25.540Z,61.88
2018-05-24T08:48:25.485Z,61.88
2018-05-24T08:49:25.511Z,61.88
2018-05-24T08:50:25.522Z,56.25
2018-05-24T08:51:25.546Z,56.25
2018-05-24T08:52:25.562Z,56.25
2018-05-24T08:53:25.655Z,56.25
2018-05-24T08:54:25.598Z,56.25
2018-05-24T08:55:25.623Z,50.63
2018-05-24T08:56:25.634Z,50.63
2018-05-24T08:57:25.649Z,50.63
2018-05-24T08:58:25.670Z,45.00
2018-05-24T08:59:25.692Z,45.00
2018-05-24T09:00:25.715Z,45.00
2018-05-24T09:01:25.819Z,39.38
2018-05-24T09:02:25.743Z,39.38
2018-05-24T09:03:25.762Z,39.38
2018-05-24T09:04:25.780Z,39.38
2018-05-24T09:05:25.801Z,39.38
2018-05-24T09:06:25.819Z,45.00
2018-05-24T09:07:25.886Z,45.00
2018-05-24T09:08:25.854Z,45.00
2018-05-24T09:09:25.879Z,39.38
2018-05-24T09:10:25.890Z,45.00
2018-05-24T09:11:25.912Z,39.38
2018-05-24T09:12:25.922Z,39.38
2018-05-24T09:13:25.945Z,39.38
2018-05-24T09:14:25.997Z,45.00
2018-05-24T09:15:25.981Z,50.63
2018-05-24T09:16:26.001Z,50.63
2018-05-24T09:17:26.019Z,56.25
2018-05-24T09:18:26.037Z,56.25
2018-05-24T09:19:26.060Z,50.63
2018-05-24T09:20:26.153Z,50.63
2018-05-24T09:21:26.089Z,50.63
2018-05-24T09:22:26.104Z,50.63
2018-05-24T09:23:26.124Z,50.63
2018-05-24T09:24:26.149Z,50.63
2018-05-24T09:25:26.208Z,50.63
2018-05-24T09:26:26.184Z,45.00
2018-05-24T09:27:26.196Z,50.63
2018-05-24T09:28:26.217Z,50.63
2018-05-24T09:29:26.303Z,56.25
2018-05-24T09:30:26.253Z,50.63
2018-05-24T09:31:26.322Z,50.63
2018-05-24T09:32:26.293Z,50.63
2018-05-24T09:33:26.307Z,56.25
2018-05-24T09:34:26.342Z,67.50
2018-05-24T09:35:26.343Z,84.38
2018-05-24T09:36:26.367Z,90.00
2018-05-24T09:37:26.460Z,84.38
2018-05-24T09:38:26.403Z,78.75
2018-05-24T09:39:26.425Z,73.13
2018-05-24T09:40:26.434Z,78.75
2018-05-24T09:41:26.457Z,90.00
2018-05-24T09:42:26.476Z,84.38
2018-05-24T09:43:26.537Z,67.50
2018-05-24T09:44:26.505Z,50.63
2018-05-24T09:45:26.529Z,33.75
2018-05-24T09:46:26.550Z,28.13
2018-05-24T09:47:26.564Z,22.50
2018-05-24T09:48:26.578Z,22.50
2018-05-24T09:49:26.603Z,28.13
2018-05-24T09:50:26.618Z,28.13
2018-05-24T09:51:26.639Z,28.13
2018-05-24T09:52:26.654Z,28.13
2018-05-24T09:53:26.680Z,28.13
2018-05-24T09:54:26.722Z,28.13
2018-05-24T09:55:26.863Z,28.13
2018-05-24T09:56:26.730Z,28.13
2018-05-24T09:57:26.750Z,33.75
2018-05-24T09:58:26.763Z,28.13
2018-05-24T09:59:26.783Z,28.13
2018-05-24T10:00:26.799Z,28.13
2018-05-24T10:01:26.824Z,33.75
2018-05-24T10:02:26.835Z,33.75
2018-05-24T10:03:26.852Z,39.38
2018-05-24T10:04:26.877Z,45.00
2018-05-24T10:05:26.894Z,50.63
2018-05-24T10:06:26.909Z,56.25
2018-05-24T10:07:26.930Z,56.25
2018-05-24T10:08:26.943Z,56.25
2018-05-24T10:09:26.965Z,56.25
2018-05-24T10:10:27.008Z,50.63
2018-05-24T10:11:27.002Z,50.63
2018-05-24T10:12:27.025Z,45.00
2018-05-24T10:13:27.037Z,45.00
2018-05-24T10:14:27.058Z,39.38
2018-05-24T10:15:27.074Z,39.38
2018-05-24T10:16:27.110Z,33.75
2018-05-24T10:17:27.167Z,28.13
2018-05-24T10:18:27.132Z,28.13
2018-05-24T10:19:27.147Z,22.50
2018-05-24T10:20:27.169Z,22.50
2018-05-24T10:21:27.185Z,22.50
2018-05-24T10:22:27.206Z,22.50
2018-05-24T10:23:27.266Z,22.50
2018-05-24T10:24:27.245Z,22.50
2018-05-24T10:25:27.265Z,22.50
2018-05-24T10:26:27.274Z,22.50
2018-05-24T10:28:27.315Z,16.88
2018-05-24T10:29:27.413Z,16.88
2018-05-24T10:30:27.347Z,16.88
2018-05-24T10:31:27.370Z,16.88
2018-05-24T10:32:27.395Z,16.88
2018-05-24T10:33:27.408Z,16.88
2018-05-24T10:34:27.428Z,22.50
2018-05-24T10:35:27.481Z,28.13
2018-05-24T10:36:27.458Z,33.75
2018-05-24T10:37:27.479Z,39.38
2018-05-24T10:38:27.498Z,45.00
2018-05-24T10:39:27.514Z,39.38
2018-05-24T10:40:27.527Z,33.75
2018-05-24T10:41:27.565Z,33.75
2018-05-24T10:42:27.565Z,33.75
2018-05-24T10:43:27.593Z,33.75
2018-05-24T10:44:27.613Z,33.75
2018-05-24T10:45:27.622Z,33.75
2018-05-24T10:46:27.644Z,28.13
2018-05-24T10:47:27.699Z,28.13
2018-05-24T10:48:27.678Z,28.13
2018-05-24T10:49:27.699Z,28.13
2018-05-24T10:50:27.710Z,28.13
2018-05-24T10:51:27.729Z,33.75
2018-05-24T10:52:27.754Z,39.38
2018-05-24T10:53:27.769Z,39.38
2018-05-24T10:54:27.789Z,45.00
2018-05-24T10:55:27.806Z,50.63
2018-05-24T10:56:27.829Z,50.63
2018-05-24T10:57:27.841Z,45.00
2018-05-24T10:58:27.861Z,33.75
2018-05-24T10:59:27.905Z,28.13
2018-05-24T11:00:27.896Z,28.13
2018-05-24T11:01:27.919Z,22.50
2018-05-24T11:02:27.931Z,28.13
2018-05-24T11:03:28.006Z,33.75
2018-05-24T11:04:27.970Z,33.75
2018-05-24T11:05:27.985Z,28.13
2018-05-24T11:06:28.058Z,28.13
2018-05-24T11:07:28.177Z,28.13
2018-05-24T11:08:28.037Z,39.38
2018-05-24T11:09:28.056Z,45.00
2018-05-24T11:10:28.073Z,50.63
2018-05-24T11:11:28.095Z,50.63
2018-05-24T11:12:28.113Z,50.63
2018-05-24T11:13:28.181Z,50.63
2018-05-24T11:14:28.147Z,56.25
2018-05-24T11:15:28.160Z,73.13
2018-05-24T11:16:28.182Z,84.38
2018-05-24T11:17:28.211Z,84.38
2018-05-24T11:18:28.214Z,84.38
2018-05-24T11:19:28.284Z,78.75
2018-05-24T11:20:28.307Z,73.13
2018-05-24T11:21:28.267Z,67.50
2018-05-24T11:22:28.286Z,67.50
2018-05-24T11:23:28.349Z,67.50
2018-05-24T11:24:28.324Z,67.50
2018-05-24T11:25:28.343Z,67.50
2018-05-24T11:26:28.364Z,61.88
2018-05-24T11:27:28.374Z,56.25
2018-05-24T11:28:28.403Z,56.25
2018-05-24T11:29:28.408Z,56.25
2018-05-24T11:30:28.427Z,61.88
2018-05-24T11:31:28.452Z,67.50
2018-05-24T11:32:28.471Z,73.13
2018-05-24T11:33:28.485Z,78.75
2018-05-24T11:34:28.499Z,78.75
2018-05-24T11:35:28.521Z,73.13
2018-05-24T11:36:28.622Z,61.88
2018-05-24T11:37:28.606Z,50.63
2018-05-24T11:38:28.581Z,45.00
2018-05-24T11:39:28.592Z,50.63
2018-05-24T11:40:28.613Z,56.25
2018-05-24T11:41:28.628Z,61.88
2018-05-24T11:42:28.643Z,56.25
2018-05-24T11:43:28.789Z,45.00
2018-05-24T11:44:28.694Z,33.75
2018-05-24T11:45:28.702Z,28.13
2018-05-24T11:46:28.720Z,28.13
2018-05-24T11:47:28.734Z,39.38
2018-05-24T11:48:28.772Z,50.63
2018-05-24T11:49:28.775Z,61.88
2018-05-24T11:50:28.794Z,67.50
2018-05-24T11:51:28.811Z,73.13
2018-05-24T11:52:28.829Z,73.13
2018-05-24T11:53:28.849Z,73.13
2018-05-24T11:54:28.865Z,78.75
2018-05-24T11:55:28.933Z,78.75
2018-05-24T11:56:28.905Z,84.38
2018-05-24T11:57:28.916Z,67.50
2018-05-24T11:58:28.931Z,56.25
2018-05-24T11:59:28.949Z,50.63
2018-05-24T12:00:28.967Z,56.25
2018-05-24T12:01:28.986Z,61.88
2018-05-24T12:02:29.006Z,50.63
2018-05-24T12:03:29.026Z,50.63
2018-05-24T12:04:29.038Z,56.25
2018-05-24T12:05:29.063Z,61.88
2018-05-24T12:06:29.082Z,78.75
2018-05-24T12:07:29.093Z,106.88
2018-05-24T12:08:29.117Z,123.75
2018-05-24T12:09:29.128Z,123.75
2018-05-24T12:10:29.150Z,106.88
2018-05-24T12:11:29.172Z,84.38
2018-05-24T12:12:29.182Z,78.75
2018-05-24T12:13:29.199Z,84.38
2018-05-24T12:14:29.222Z,84.38
2018-05-24T12:15:29.238Z,78.75
2018-05-24T12:16:29.269Z,67.50
2018-05-24T12:17:29.375Z,56.25
2018-05-24T12:18:29.289Z,50.63
2018-05-24T12:19:29.309Z,50.63
2018-05-24T12:20:29.322Z,45.00
2018-05-24T12:21:29.343Z,45.00
2018-05-24T12:22:29.360Z,39.38
2018-05-24T12:23:29.376Z,39.38
2018-05-24T12:24:29.393Z,45.00
2018-05-24T12:25:29.413Z,39.38
2018-05-24T12:26:29.430Z,50.63
2018-05-24T12:27:29.451Z,56.25
2018-05-24T12:28:29.467Z,67.50
2018-05-24T12:29:29.481Z,67.50
2018-05-24T12:30:29.501Z,73.13
2018-05-24T12:31:29.521Z,78.75
2018-05-24T12:32:29.531Z,84.38
2018-05-24T12:33:29.554Z,78.75
2018-05-24T12:34:29.574Z,78.75
2018-05-24T12:35:29.685Z,73.13
2018-05-24T12:36:29.601Z,78.75
2018-05-24T12:37:29.679Z,78.75
2018-05-24T12:38:29.643Z,78.75
2018-05-24T12:39:29.659Z,90.00
2018-05-24T12:40:29.682Z,101.25
2018-05-24T12:42:29.707Z,112.50
2018-05-24T12:43:29.725Z,118.13
2018-05-24T12:44:29.753Z,123.75
2018-05-24T12:45:29.767Z,118.13
2018-05-24T12:46:29.784Z,101.25
2018-05-24T12:47:29.796Z,101.25
2018-05-24T12:48:29.816Z,106.88
2018-05-24T12:49:29.836Z,106.88
2018-05-24T12:50:29.847Z,106.88
2018-05-24T12:51:29.868Z,106.88
2018-05-24T12:52:29.890Z,106.88
2018-05-24T12:53:29.909Z,112.50
2018-05-24T12:54:29.924Z,123.75
2018-05-24T12:55:30.018Z,123.75
2018-05-24T12:56:29.954Z,112.50
2018-05-24T12:57:29.971Z,118.13
2018-05-24T12:58:29.994Z,123.75
2018-05-24T12:59:30.012Z,135.00
2018-05-24T13:00:30.031Z,129.38
2018-05-24T13:02:30.063Z,140.63
2018-05-24T13:03:30.085Z,140.63
2018-05-24T13:04:30.098Z,163.13
2018-05-24T13:05:30.114Z,174.38
2018-05-24T13:06:30.135Z,168.75
2018-05-24T13:07:30.202Z,146.25
2018-05-24T13:08:30.173Z,123.75